Time;durP1;ratioP1;P1;durP2;ratioP2;P2;SDS_P1;SDS_P2;PMS_P1;PMS_P2;Temp;Humidity;BMP_temperature;BMP_pressure;BME280_temperature;BME280_humidity;BME280_pressure;Samples;Min_cycle;Max_cycle;Signal;HPM_P1;HPM_P2
2022/05/10 00:02:10;;;;;;;9.80;8.35;;;18.40;56.50;;;;;;4979552;28;20026;-73
2022/05/10 00:04:36;;;;;;;10.30;8.85;;;18.40;56.60;;;;;;4989448;28;20037;-73
2022/05/10 00:07:03;;;;;;;9.32;8.32;;;18.40;56.60;;;;;;4994872;28;20051;-73
2022/05/10 00:09:29;;;;;;;10.32;8.48;;;18.40;56.60;;;;;;4956905;28;20537;-73
2022/05/10 00:11:57;;;;;;;10.02;8.85;;;18.40;56.70;;;;;;4988882;28;20491;-73
2022/05/10 00:14:26;;;;;;;10.75;8.93;;;18.40;56.70;;;;;;4987787;28;20033;-73
2022/05/10 00:16:52;;;;;;;11.07;9.48;;;18.30;56.50;;;;;;4973117;28;20191;-73
2022/05/10 00:19:19;;;;;;;9.85;8.20;;;18.30;56.60;;;;;;4989500;28;20124;-73
2022/05/10 00:21:47;;;;;;;12.20;9.63;;;18.30;56.60;;;;;;4980676;28;20122;-73
2022/05/10 00:24:14;;;;;;;9.68;7.85;;;18.20;56.50;;;;;;4987589;28;20026;-72
2022/05/10 00:26:40;;;;;;;10.90;8.90;;;18.30;56.70;;;;;;4986769;28;20034;-73
2022/05/10 00:29:06;;;;;;;9.65;8.70;;;18.20;56.60;;;;;;4987906;28;20092;-72
2022/05/10 00:31:32;;;;;;;9.32;8.20;;;18.20;56.60;;;;;;4995481;28;20061;-73
2022/05/10 00:34:00;;;;;;;10.65;8.75;;;18.20;56.70;;;;;;4986148;28;20031;-72
2022/05/10 00:36:27;;;;;;;10.52;9.27;;;18.20;56.80;;;;;;4974519;28;20842;-73
2022/05/10 00:38:53;;;;;;;10.20;8.82;;;18.20;56.80;;;;;;4987371;28;20031;-73
2022/05/10 00:41:56;;;;;;;9.05;8.13;;;18.20;56.80;;;;;;4972309;28;20026;-73
2022/05/10 00:44:37;;;;;;;12.68;10.30;;;18.10;56.80;;;;;;4988957;28;20113;-73
2022/05/10 00:47:25;;;;;;;11.73;8.90;;;18.10;56.70;;;;;;4986888;28;20319;-73
2022/05/10 00:50:04;;;;;;;9.77;8.77;;;18.10;56.80;;;;;;4977839;28;20058;-73
2022/05/10 00:52:42;;;;;;;11.27;8.45;;;18.10;56.70;;;;;;4979678;28;20034;-73
2022/05/10 00:55:16;;;;;;;11.77;9.18;;;18.10;56.80;;;;;;4987556;28;20121;-73
2022/05/10 00:57:56;;;;;;;12.20;9.68;;;18.10;56.80;;;;;;4988963;28;20026;-73
2022/05/10 01:00:23;;;;;;;11.13;9.15;;;18.00;56.70;;;;;;4985658;28;20030;-73
2022/05/10 01:03:22;;;;;;;10.27;8.80;;;18.00;56.70;;;;;;4988611;28;20046;-73
2022/05/10 01:06:15;;;;;;;11.45;9.57;;;18.00;56.90;;;;;;4981864;28;20040;-72
2022/05/10 01:08:58;;;;;;;10.98;8.82;;;18.00;56.90;;;;;;4992610;28;20026;-73
2022/05/10 01:11:33;;;;;;;10.15;9.13;;;18.00;56.90;;;;;;4987939;28;20030;-73
2022/05/10 01:14:25;;;;;;;10.90;8.88;;;17.90;56.80;;;;;;4992760;28;20098;-73
2022/05/10 01:16:51;;;;;;;12.40;8.80;;;17.90;56.80;;;;;;4991170;28;20121;-71
2022/05/10 01:19:16;;;;;;;11.45;9.23;;;17.90;56.80;;;;;;4992950;28;20501;-73
2022/05/10 01:22:08;;;;;;;11.93;9.38;;;17.90;56.90;;;;;;4994010;28;20034;-72
2022/05/10 01:25:08;;;;;;;11.45;10.25;;;17.90;57.10;;;;;;4978447;28;20074;-73
2022/05/10 01:28:02;;;;;;;12.30;9.77;;;17.80;57.00;;;;;;4996213;28;20033;-73
2022/05/10 01:30:31;;;;;;;11.77;10.52;;;17.80;57.00;;;;;;4980801;28;20069;-73
2022/05/10 01:35:54;;;;;;;11.75;9.43;;;17.70;56.90;;;;;;4991822;28;20042;-72
2022/05/10 01:38:27;;;;;;;13.00;9.82;;;17.70;57.00;;;;;;4986487;28;20168;-72
2022/05/10 01:40:59;;;;;;;11.52;9.63;;;17.70;57.00;;;;;;4989007;28;20046;-73
2022/05/10 01:43:42;;;;;;;10.03;8.27;;;17.70;57.10;;;;;;4990771;28;20030;-73
2022/05/10 01:46:14;;;;;;;10.32;8.95;;;17.60;57.10;;;;;;4985857;28;20142;-73
2022/05/10 01:48:44;;;;;;;10.75;9.13;;;17.60;57.10;;;;;;4991725;28;20046;-72
2022/05/10 01:51:30;;;;;;;10.88;9.40;;;17.60;57.10;;;;;;4965796;28;20475;-73
2022/05/10 01:53:56;;;;;;;11.52;9.50;;;17.60;57.20;;;;;;4974872;28;20148;-73
2022/05/10 01:56:25;;;;;;;11.05;9.45;;;17.60;57.20;;;;;;4975327;28;20173;-73
2022/05/10 01:58:53;;;;;;;10.10;8.57;;;17.50;57.10;;;;;;4971747;28;20130;-73
2022/05/10 02:01:39;;;;;;;10.55;9.05;;;17.50;57.10;;;;;;4994148;28;20037;-72
2022/05/10 02:04:20;;;;;;;10.00;8.85;;;17.50;57.70;;;;;;4983719;28;20073;-73
2022/05/10 02:06:58;;;;;;;10.20;8.00;;;17.50;57.30;;;;;;4995426;28;20113;-73
2022/05/10 02:09:32;;;;;;;9.85;8.77;;;17.50;57.30;;;;;;4993672;28;20034;-73
2022/05/10 02:12:15;;;;;;;11.23;8.77;;;17.50;57.30;;;;;;4992530;28;20054;-73
2022/05/10 02:14:46;;;;;;;;;;;17.40;57.30;;;;;;4989310;28;20117;-73
2022/05/10 02:17:44;;;;;;;11.38;8.80;;;17.40;57.10;;;;;;4990709;28;19956;-73
2022/05/10 02:20:29;;;;;;;9.60;8.60;;;17.40;57.10;;;;;;4953069;28;20050;-73
2022/05/10 02:23:22;;;;;;;10.00;8.75;;;17.40;57.20;;;;;;4989910;28;20030;-73
2022/05/10 02:26:06;;;;;;;8.85;7.95;;;17.40;57.20;;;;;;4986560;28;20082;-73
2022/05/10 02:28:38;;;;;;;9.35;8.40;;;17.30;57.10;;;;;;4992797;28;20693;-73
2022/05/10 02:31:10;;;;;;;8.27;7.47;;;17.40;57.20;;;;;;4990397;28;20616;-73
2022/05/10 02:33:37;;;;;;;10.32;8.57;;;17.40;57.30;;;;;;4984682;28;20026;-73
2022/05/10 02:36:04;;;;;;;8.48;7.15;;;17.40;57.30;;;;;;4989231;28;20034;-73
2022/05/10 02:38:39;;;;;;;8.25;7.40;;;17.40;57.40;;;;;;4973345;28;20139;-73
2022/05/10 02:41:18;;;;;;;7.65;6.82;;;17.40;57.50;;;;;;4988641;28;20065;-73
2022/05/10 02:43:53;;;;;;;8.68;7.22;;;17.40;57.50;;;;;;4979155;28;20035;-72
2022/05/10 02:46:21;;;;;;;6.30;5.72;;;17.30;57.30;;;;;;4991334;28;20401;-73
2022/05/10 02:48:48;;;;;;;7.63;6.25;;;17.30;57.30;;;;;;4973743;28;20025;-73
2022/05/10 02:51:16;;;;;;;7.70;6.90;;;17.30;57.30;;;;;;4987003;28;20035;-73
2022/05/10 02:53:42;;;;;;;7.13;6.28;;;17.30;57.40;;;;;;4984634;28;20320;-72
2022/05/10 02:56:11;;;;;;;8.73;7.38;;;17.30;57.40;;;;;;4987432;28;20405;-72
2022/05/10 02:58:46;;;;;;;6.32;5.72;;;17.30;57.50;;;;;;4979318;28;20510;-72
2022/05/10 03:01:49;;;;;;;8.98;6.15;;;17.30;57.50;;;;;;4989851;28;20034;-72
2022/05/10 03:04:15;;;;;;;6.47;5.88;;;17.30;57.60;;;;;;4989320;28;20489;-71
2022/05/10 03:06:44;;;;;;;7.35;6.47;;;17.30;57.40;;;;;;4987969;28;20205;-72
2022/05/10 03:09:10;;;;;;;6.85;6.00;;;17.30;57.50;;;;;;4989083;28;20457;-72
2022/05/10 03:11:38;;;;;;;8.52;6.28;;;17.30;57.60;;;;;;4985088;28;20069;-72
2022/05/10 03:14:06;;;;;;;7.50;5.63;;;17.40;57.80;;;;;;4986249;28;20079;-72
2022/05/10 03:16:32;;;;;;;5.65;5.15;;;17.40;57.80;;;;;;4991442;28;20490;-72
2022/05/10 03:18:58;;;;;;;8.77;5.75;;;17.30;57.60;;;;;;4995768;28;20050;-72
2022/05/10 03:21:24;;;;;;;5.15;4.65;;;17.40;57.90;;;;;;4994573;28;20052;-72
2022/05/10 03:23:50;;;;;;;6.55;5.60;;;17.40;57.90;;;;;;4987255;28;20502;-72
2022/05/10 03:26:21;;;;;;;5.65;4.90;;;17.40;57.90;;;;;;4999008;28;20036;-72
2022/05/10 03:28:48;;;;;;;7.75;5.90;;;17.30;57.80;;;;;;4984578;28;20030;-73
2022/05/10 03:31:16;;;;;;;5.68;4.88;;;17.30;57.70;;;;;;4990797;28;20493;-72
2022/05/10 03:33:42;;;;;;;6.05;5.22;;;17.30;57.80;;;;;;4974054;28;20027;-73
2022/05/10 03:36:08;;;;;;;5.18;4.65;;;17.30;58.40;;;;;;4988121;28;20081;-72
2022/05/10 03:38:36;;;;;;;6.18;5.55;;;17.30;57.90;;;;;;4989350;28;20401;-73
2022/05/10 03:41:03;;;;;;;6.15;4.43;;;17.30;57.90;;;;;;4990122;28;20037;-73
2022/05/10 03:43:28;;;;;;;6.93;4.95;;;17.30;58.00;;;;;;4983976;28;20034;-73
2022/05/10 03:45:55;;;;;;;7.75;5.07;;;17.30;58.00;;;;;;4990724;28;20030;-73
2022/05/10 03:48:21;;;;;;;7.80;4.68;;;17.30;58.10;;;;;;4990513;28;20054;-73
2022/05/10 03:50:47;;;;;;;5.55;4.03;;;17.30;58.10;;;;;;4991651;28;20025;-73
2022/05/10 03:53:13;;;;;;;7.00;4.55;;;17.30;58.10;;;;;;4989491;28;20105;-73
2022/05/10 03:55:39;;;;;;;5.40;4.18;;;17.20;58.00;;;;;;4975935;28;20509;-74
2022/05/10 03:58:05;;;;;;;4.00;3.55;;;17.20;58.10;;;;;;4981157;28;20061;-73
2022/05/10 04:00:32;;;;;;;4.03;3.50;;;17.30;58.30;;;;;;4982820;28;20041;-74
2022/05/10 04:02:58;;;;;;;4.13;3.72;;;17.20;58.20;;;;;;4990842;28;20069;-73
2022/05/10 04:05:25;;;;;;;4.60;3.75;;;17.20;58.20;;;;;;4986937;28;20019;-72
2022/05/10 04:07:51;;;;;;;4.22;3.83;;;17.20;58.20;;;;;;4994651;28;20077;-73
2022/05/10 04:10:18;;;;;;;4.38;3.85;;;17.20;58.30;;;;;;4975291;28;20564;-73
2022/05/10 04:12:44;;;;;;;4.70;3.33;;;17.30;58.50;;;;;;4984601;28;20085;-73
2022/05/10 04:15:14;;;;;;;6.13;3.83;;;17.20;58.30;;;;;;4977794;28;20030;-73
2022/05/10 04:17:42;;;;;;;4.15;3.13;;;17.20;58.30;;;;;;4992450;28;20038;-73
2022/05/10 04:20:10;;;;;;;3.90;3.42;;;17.20;58.30;;;;;;4989493;28;20034;-72
2022/05/10 04:22:36;;;;;;;3.35;3.05;;;17.20;58.40;;;;;;4991852;28;20417;-73
2022/05/10 04:25:02;;;;;;;5.45;3.53;;;17.20;58.40;;;;;;4988243;28;20473;-73
2022/05/10 04:27:29;;;;;;;5.47;3.50;;;17.20;58.50;;;;;;4990212;28;20030;-73
2022/05/10 04:29:55;;;;;;;4.47;3.45;;;17.20;58.50;;;;;;4994720;28;20027;-73
2022/05/10 04:32:20;;;;;;;3.42;3.13;;;17.20;58.50;;;;;;4983544;28;20130;-73
2022/05/10 04:34:46;;;;;;;4.15;2.95;;;17.20;58.80;;;;;;4989693;28;20149;-73
2022/05/10 04:37:13;;;;;;;4.32;3.22;;;17.20;58.60;;;;;;4992745;28;20535;-73
2022/05/10 04:42:23;;;;;;;5.55;3.83;;;17.20;58.70;;;;;;4985549;28;20033;-73
2022/05/10 04:44:49;;;;;;;3.90;3.50;;;17.20;58.60;;;;;;4996059;28;20034;-73
2022/05/10 04:47:15;;;;;;;3.63;3.33;;;17.20;58.60;;;;;;4986216;28;20039;-73
2022/05/10 04:49:41;;;;;;;2.78;2.47;;;17.20;58.70;;;;;;4987788;28;20034;-73
2022/05/10 04:52:09;;;;;;;5.57;3.33;;;17.20;58.70;;;;;;4965712;28;20037;-73
2022/05/10 04:54:35;;;;;;;6.20;3.80;;;17.20;58.80;;;;;;4989421;28;20477;-73
2022/05/10 04:57:01;;;;;;;2.83;2.53;;;17.10;58.70;;;;;;4980782;28;20037;-73
2022/05/10 04:59:27;;;;;;;3.25;2.90;;;17.20;58.90;;;;;;4985987;28;20248;-73
2022/05/10 05:01:53;;;;;;;4.22;2.63;;;17.10;58.70;;;;;;4980154;28;20093;-73
2022/05/10 05:04:19;;;;;;;4.22;2.75;;;17.10;58.80;;;;;;4980496;28;20026;-73
2022/05/10 05:06:49;;;;;;;3.97;3.47;;;17.10;58.80;;;;;;4994981;28;20093;-74
2022/05/10 05:09:15;;;;;;;4.00;2.97;;;17.10;58.80;;;;;;4990246;28;20157;-74
2022/05/10 05:11:40;;;;;;;2.60;2.40;;;17.10;58.80;;;;;;4968906;28;20033;-73
2022/05/10 05:14:07;;;;;;;2.72;2.40;;;17.10;58.80;;;;;;4997474;28;20034;-73
2022/05/10 05:16:33;;;;;;;3.75;2.80;;;17.10;58.90;;;;;;4993041;28;20034;-74
2022/05/10 05:18:59;;;;;;;3.53;2.85;;;17.10;58.90;;;;;;4995968;28;20033;-74
2022/05/10 05:21:24;;;;;;;4.55;2.80;;;17.10;58.90;;;;;;4983994;28;20041;-74
2022/05/10 05:23:50;;;;;;;3.53;2.50;;;17.10;59.00;;;;;;4988293;28;20397;-72
2022/05/10 05:26:18;;;;;;;2.95;2.58;;;17.10;59.00;;;;;;4989910;28;20133;-73
2022/05/10 05:28:44;;;;;;;2.78;2.58;;;17.10;59.10;;;;;;4993873;28;20034;-72
2022/05/10 05:31:13;;;;;;;2.83;2.58;;;17.10;59.20;;;;;;4987355;28;20045;-73
2022/05/10 05:33:39;;;;;;;4.20;2.53;;;17.10;59.30;;;;;;4970984;28;20037;-73
2022/05/10 05:36:05;;;;;;;3.45;2.38;;;17.10;59.30;;;;;;4992700;28;20037;-73
2022/05/10 05:38:33;;;;;;;4.30;2.90;;;17.10;59.40;;;;;;4991921;28;20052;-74
2022/05/10 05:41:01;;;;;;;4.30;3.03;;;17.10;59.40;;;;;;4985066;28;20121;-73
2022/05/10 05:43:27;;;;;;;3.97;2.72;;;17.10;59.50;;;;;;4982676;28;20030;-74
2022/05/10 05:45:53;;;;;;;3.60;2.78;;;17.10;59.70;;;;;;4979273;28;20362;-73
2022/05/10 05:48:20;;;;;;;4.70;2.75;;;17.10;59.80;;;;;;4991086;28;20034;-74
2022/05/10 05:50:46;;;;;;;5.50;3.25;;;17.00;59.70;;;;;;4990720;28;20375;-74
2022/05/10 05:53:17;;;;;;;3.75;2.50;;;17.00;59.90;;;;;;4989762;28;20026;-75
2022/05/10 05:55:46;;;;;;;3.05;2.50;;;17.00;59.90;;;;;;4954654;28;20060;-74
2022/05/10 05:58:12;;;;;;;3.95;2.67;;;17.00;60.00;;;;;;4993451;28;20031;-74
2022/05/10 06:00:38;;;;;;;3.45;2.42;;;17.00;60.10;;;;;;4991609;28;20209;-74
2022/05/10 06:03:05;;;;;;;3.47;2.67;;;17.00;60.20;;;;;;4991044;28;20486;-75
2022/05/10 06:05:31;;;;;;;2.72;2.40;;;17.00;60.30;;;;;;4987947;28;20456;-73
2022/05/10 06:07:58;;;;;;;3.40;3.10;;;17.00;60.30;;;;;;4990704;28;20030;-74
2022/05/10 06:10:24;;;;;;;4.47;2.70;;;16.90;60.30;;;;;;4983061;28;20054;-74
2022/05/10 06:12:51;;;;;;;3.90;2.65;;;17.00;60.50;;;;;;4992508;28;20085;-74
2022/05/10 06:15:19;;;;;;;3.70;2.72;;;17.00;60.60;;;;;;4988902;28;20045;-74
2022/05/10 06:17:48;;;;;;;5.75;3.10;;;17.00;60.70;;;;;;4985992;28;20063;-74
2022/05/10 06:20:18;;;;;;;5.60;3.75;;;17.00;60.80;;;;;;4994978;28;20489;-75
2022/05/10 06:22:45;;;;;;;3.45;2.80;;;17.00;61.10;;;;;;4988479;28;20022;-74
2022/05/10 06:25:13;;;;;;;3.90;2.53;;;17.00;61.30;;;;;;4991487;28;20037;-74
2022/05/10 06:27:39;;;;;;;4.25;3.45;;;17.10;61.60;;;;;;4987646;28;20176;-74
2022/05/10 06:30:05;;;;;;;3.78;2.90;;;17.10;61.60;;;;;;4988401;28;20129;-74
2022/05/10 06:32:31;;;;;;;2.85;2.35;;;17.10;61.60;;;;;;4990761;28;20447;-74
2022/05/10 06:34:59;;;;;;;4.93;2.60;;;17.10;61.60;;;;;;4986760;28;20031;-74
2022/05/10 06:40:15;;;;;;;5.68;3.03;;;17.10;61.70;;;;;;4990142;28;20436;-74
2022/05/10 06:42:42;;;;;;;3.72;2.53;;;17.20;61.80;;;;;;4987774;28;20038;-75
2022/05/10 06:45:13;;;;;;;10.77;3.53;;;17.20;61.90;;;;;;4985956;28;20397;-73
2022/05/10 06:47:41;;;;;;;2.85;2.08;;;17.20;61.90;;;;;;4966128;28;20107;-74
2022/05/10 06:50:10;;;;;;;5.07;2.63;;;17.20;61.90;;;;;;4989043;28;20027;-73
2022/05/10 06:52:36;;;;;;;5.13;2.47;;;17.20;61.90;;;;;;4986198;28;20100;-73
2022/05/10 06:55:02;;;;;;;6.03;2.28;;;17.20;61.90;;;;;;4987131;28;20034;-74
2022/05/10 06:57:28;;;;;;;4.18;2.47;;;17.20;61.90;;;;;;4984389;28;20506;-75
2022/05/10 06:59:54;;;;;;;5.85;2.53;;;17.20;61.90;;;;;;4990310;28;20044;-74
2022/05/10 07:02:21;;;;;;;4.93;2.45;;;17.20;61.90;;;;;;4989009;28;20033;-74
2022/05/10 07:04:47;;;;;;;5.90;2.55;;;17.30;62.00;;;;;;4985128;28;20010;-74
2022/05/10 07:07:13;;;;;;;6.90;2.42;;;17.40;62.10;;;;;;4987721;28;20034;-74
2022/05/10 07:09:39;;;;;;;3.67;2.55;;;17.40;61.90;;;;;;4985576;28;20033;-74
2022/05/10 07:12:05;;;;;;;7.00;2.83;;;17.40;61.80;;;;;;4984491;28;20088;-74
2022/05/10 07:14:31;;;;;;;6.88;2.47;;;17.50;61.80;;;;;;4967396;28;20113;-74
2022/05/10 07:16:57;;;;;;;7.95;2.35;;;17.50;61.70;;;;;;4984033;28;20086;-74
2022/05/10 07:19:23;;;;;;;6.32;2.25;;;17.60;61.80;;;;;;4987668;28;20034;-74
2022/05/10 07:21:49;;;;;;;4.35;1.60;;;17.60;61.70;;;;;;4979722;28;20033;-73
2022/05/10 07:24:19;;;;;;;4.78;2.28;;;17.70;61.90;;;;;;4963754;28;20026;-72
2022/05/10 07:26:46;;;;;;;4.68;1.88;;;17.70;61.80;;;;;;4986755;28;20053;-74
2022/05/10 07:29:13;;;;;;;5.78;1.90;;;17.70;61.80;;;;;;4990049;28;20029;-72
2022/05/10 07:31:39;;;;;;;7.35;2.47;;;17.70;61.70;;;;;;4996844;28;20026;-74
2022/05/10 07:34:06;;;;;;;6.63;2.28;;;17.70;61.70;;;;;;4984697;28;20081;-72
2022/05/10 07:36:34;;;;;;;8.18;2.58;;;17.80;61.70;;;;;;4979402;28;20030;-73
2022/05/10 07:39:03;;;;;;;9.23;2.58;;;17.80;61.60;;;;;;4981060;28;20545;-73
2022/05/10 07:41:29;;;;;;;6.13;2.05;;;17.90;61.70;;;;;;4983205;28;20443;-72
2022/05/10 07:43:56;;;;;;;8.98;2.20;;;17.90;61.60;;;;;;4991548;28;20503;-73
2022/05/10 07:46:22;;;;;;;6.10;2.55;;;18.00;61.70;;;;;;4988499;28;20046;-73
2022/05/10 07:48:48;;;;;;;5.07;2.55;;;18.00;61.60;;;;;;4987414;28;20038;-73
2022/05/10 07:51:14;;;;;;;5.82;1.98;;;18.00;61.50;;;;;;4983543;28;20093;-73
2022/05/10 07:53:41;;;;;;;6.15;2.30;;;18.10;61.60;;;;;;4963874;28;20037;-72
2022/05/10 07:56:08;;;;;;;10.38;2.88;;;18.10;61.50;;;;;;4982086;28;20524;-72
2022/05/10 07:58:35;;;;;;;8.25;3.05;;;18.10;61.50;;;;;;4969373;28;20042;-73
2022/05/10 08:01:02;;;;;;;5.68;2.40;;;18.20;61.60;;;;;;4969539;28;20113;-73
2022/05/10 08:03:29;;;;;;;6.82;2.22;;;18.20;61.50;;;;;;4987680;28;20036;-73
2022/05/10 08:05:55;;;;;;;5.40;2.65;;;18.20;61.50;;;;;;4962197;28;20683;-72
2022/05/10 08:08:22;;;;;;;9.40;2.80;;;18.20;61.50;;;;;;4985769;28;20585;-72
2022/05/10 08:10:49;;;;;;;9.48;2.88;;;18.20;61.50;;;;;;4986522;28;21162;-72
2022/05/10 08:13:27;;;;;;;10.27;3.20;;;18.30;61.60;;;;;;4985809;28;20058;-72
2022/05/10 08:15:56;;;;;;;7.93;2.58;;;18.40;61.60;;;;;;4985281;28;20076;-72
2022/05/10 08:18:23;;;;;;;8.25;3.25;;;18.50;61.50;;;;;;4989529;28;20512;-72
2022/05/10 08:20:51;;;;;;;10.48;2.92;;;18.70;61.60;;;;;;4985264;28;20456;-73
2022/05/10 08:23:23;;;;;;;10.98;3.30;;;18.80;61.50;;;;;;4985192;28;20116;-72
2022/05/10 08:25:49;;;;;;;12.23;3.80;;;18.90;61.40;;;;;;4978416;28;20066;-73
2022/05/10 08:28:15;;;;;;;12.52;3.67;;;19.10;61.40;;;;;;4969446;28;20378;-73
2022/05/10 08:30:44;;;;;;;11.93;3.58;;;19.20;61.20;;;;;;4988638;28;20765;-73
2022/05/10 08:33:10;;;;;;;10.40;2.90;;;19.30;61.10;;;;;;4985902;28;20585;-71
2022/05/10 08:35:37;;;;;;;10.65;3.60;;;19.50;61.10;;;;;;4991232;28;20119;-71
2022/05/10 08:38:04;;;;;;;8.10;2.83;;;19.70;61.10;;;;;;4985701;28;20026;-73
2022/05/10 08:40:42;;;;;;;8.13;2.55;;;19.80;60.90;;;;;;4990165;28;20030;-71
2022/05/10 08:43:17;;;;;;;10.35;3.00;;;20.00;60.90;;;;;;4964571;28;20425;-71
2022/05/10 08:45:45;;;;;;;6.82;2.35;;;20.20;60.80;;;;;;4970512;28;20103;-71
2022/05/10 08:48:11;;;;;;;8.07;2.38;;;20.40;60.70;;;;;;4989516;28;20091;-71
2022/05/10 08:50:44;;;;;;;7.32;2.90;;;20.60;60.60;;;;;;4992286;28;20034;-71
2022/05/10 08:53:12;;;;;;;11.32;2.92;;;20.80;60.50;;;;;;4974170;28;20425;-73
2022/05/10 08:55:46;;;;;;;10.63;3.10;;;21.00;60.40;;;;;;4974249;28;20574;-73
2022/05/10 08:58:44;;;;;;;13.25;3.50;;;21.30;60.30;;;;;;4993971;28;20038;-71
2022/05/10 09:01:26;;;;;;;6.95;2.30;;;21.60;60.10;;;;;;4996933;28;20084;-72
2022/05/10 09:04:00;;;;;;;10.82;2.60;;;21.90;59.90;;;;;;4989547;28;20389;-71
2022/05/10 09:06:29;;;;;;;12.95;3.17;;;22.20;59.90;;;;;;4989444;28;20045;-72
2022/05/10 09:09:29;;;;;;;9.77;3.28;;;22.30;59.60;;;;;;4971954;28;20446;-73
2022/05/10 09:12:05;;;;;;;11.13;2.50;;;22.50;59.40;;;;;;4985718;28;20413;-73
2022/05/10 09:14:38;;;;;;;9.23;2.40;;;22.80;59.30;;;;;;4994992;28;20246;-73
2022/05/10 09:17:04;;;;;;;7.03;2.00;;;23.00;59.20;;;;;;4993891;28;20037;-73
2022/05/10 09:19:41;;;;;;;10.65;3.13;;;23.10;59.00;;;;;;4987135;28;20042;-73
2022/05/10 09:22:27;;;;;;;10.65;2.65;;;23.30;58.90;;;;;;4985660;28;20030;-73
2022/05/10 09:24:56;;;;;;;7.47;2.08;;;23.50;58.80;;;;;;4988649;28;20502;-73
2022/05/10 09:27:31;;;;;;;10.32;3.03;;;23.70;58.80;;;;;;4983486;28;20057;-72
2022/05/10 09:29:58;;;;;;;9.20;2.90;;;24.00;58.70;;;;;;4994901;28;20060;-72
2022/05/10 09:35:17;;;;;;;8.77;2.53;;;24.50;58.10;;;;;;4987188;28;20116;-73
2022/05/10 09:37:48;;;;;;;8.82;3.28;;;24.50;57.80;;;;;;4990492;28;20497;-73
2022/05/10 09:40:43;;;;;;;9.13;2.10;;;24.60;57.70;;;;;;4995269;28;20391;-73
2022/05/10 09:43:26;;;;;;;8.80;2.70;;;24.60;57.20;;;;;;4955966;28;20038;-73
2022/05/10 09:46:04;;;;;;;11.65;2.92;;;24.70;57.60;;;;;;4992588;28;20131;-73
2022/05/10 09:48:30;;;;;;;6.20;2.25;;;24.70;57.20;;;;;;4985734;28;20045;-73
2022/05/10 09:51:18;;;;;;;10.60;2.83;;;24.80;57.40;;;;;;4987181;28;20925;-73
2022/05/10 09:53:44;;;;;;;9.43;3.25;;;24.90;57.10;;;;;;4989207;28;20031;-73
2022/05/10 09:56:23;;;;;;;9.43;3.08;;;24.90;56.90;;;;;;4992336;28;20135;-72
2022/05/10 09:59:11;;;;;;;8.60;2.30;;;25.10;56.40;;;;;;4993760;28;20030;-73
2022/05/10 10:01:44;;;;;;;9.07;2.67;;;25.20;56.10;;;;;;4969006;28;20030;-73
2022/05/10 10:04:40;;;;;;;4.85;1.85;;;25.20;55.90;;;;;;4987864;28;20566;-72
2022/05/10 10:07:17;;;;;;;9.77;2.88;;;25.30;55.50;;;;;;4987783;28;20762;-72
2022/05/10 10:09:52;;;;;;;8.52;2.20;;;25.40;55.50;;;;;;4966251;28;20034;-71
2022/05/10 10:12:38;;;;;;;9.35;2.55;;;25.50;55.10;;;;;;4979043;28;20022;-71
2022/05/10 10:15:28;;;;;;;7.50;2.47;;;25.50;54.60;;;;;;4987472;28;20041;-72
2022/05/10 10:18:00;;;;;;;9.82;2.72;;;25.60;54.50;;;;;;4985075;28;20318;-71
2022/05/10 10:20:33;;;;;;;14.45;3.65;;;25.70;54.50;;;;;;4982789;28;20069;-72
2022/05/10 10:23:03;;;;;;;6.78;2.35;;;25.80;54.40;;;;;;4988396;28;20089;-72
2022/05/10 10:25:29;;;;;;;16.13;2.92;;;25.80;54.10;;;;;;4975692;28;20560;-75
2022/05/10 10:28:17;;;;;;;11.57;2.85;;;25.80;53.90;;;;;;4990213;28;20034;-72
2022/05/10 10:30:50;;;;;;;9.45;2.05;;;25.80;54.20;;;;;;4992624;28;20033;-72
2022/05/10 10:33:38;;;;;;;8.13;2.38;;;25.80;53.70;;;;;;4992981;28;20121;-71
2022/05/10 10:36:12;;;;;;;5.40;2.03;;;25.80;53.40;;;;;;4984125;28;20138;-73
2022/05/10 10:38:59;;;;;;;8.07;2.53;;;25.80;53.50;;;;;;4985523;28;20034;-72
2022/05/10 10:41:25;;;;;;;6.90;2.00;;;25.80;53.00;;;;;;4995903;28;20038;-73
2022/05/10 10:44:06;;;;;;;7.03;2.10;;;25.80;53.20;;;;;;4987669;28;20026;-72
2022/05/10 10:46:42;;;;;;;10.27;2.50;;;25.80;52.90;;;;;;4988945;28;20177;-72
2022/05/10 10:49:16;;;;;;;5.82;1.88;;;25.90;52.80;;;;;;4995768;28;20288;-72
2022/05/10 10:51:43;;;;;;;5.40;1.95;;;25.90;52.60;;;;;;4989933;28;20102;-72
2022/05/10 10:54:17;;;;;;;7.47;2.00;;;26.00;52.60;;;;;;4994541;28;20289;-72
2022/05/10 10:57:18;;;;;;;7.63;2.58;;;26.00;52.30;;;;;;4982355;28;20058;-72
2022/05/10 11:00:11;;;;;;;8.40;2.40;;;26.10;52.20;;;;;;4980965;28;20050;-72
2022/05/10 11:03:00;;;;;;;6.72;2.50;;;26.30;52.20;;;;;;4989980;28;20142;-71
2022/05/10 11:06:01;;;;;;;8.82;2.30;;;26.30;52.00;;;;;;4974438;28;20034;-72
2022/05/10 11:08:36;;;;;;;6.57;1.77;;;26.50;51.80;;;;;;4988883;28;20050;-72
2022/05/10 11:11:17;;;;;;;6.78;2.03;;;26.60;51.70;;;;;;4992813;28;20030;-72
2022/05/10 11:14:06;;;;;;;8.60;2.58;;;26.70;51.20;;;;;;4982022;28;20092;-72
2022/05/10 11:17:00;;;;;;;4.70;1.50;;;26.80;51.10;;;;;;4990979;28;20076;-72
2022/05/10 11:20:03;;;;;;;9.02;1.95;;;26.90;51.00;;;;;;4987741;28;20054;-71
2022/05/10 11:22:39;;;;;;;6.75;2.53;;;26.90;50.70;;;;;;4987262;28;20027;-72
2022/05/10 11:25:27;;;;;;;9.90;2.45;;;27.00;50.80;;;;;;4989494;28;20042;-73
2022/05/10 11:28:21;;;;;;;7.30;2.42;;;27.20;50.50;;;;;;4988376;28;20080;-72
2022/05/10 11:30:56;;;;;;;6.60;2.13;;;27.20;50.20;;;;;;4984163;28;20548;-72
2022/05/10 11:33:36;;;;;;;9.30;1.98;;;27.30;50.30;;;;;;4986852;28;20033;-72
2022/05/10 11:36:17;;;;;;;9.38;1.92;;;27.40;50.00;;;;;;4991067;28;20070;-72
2022/05/10 11:39:17;;;;;;;9.77;3.30;;;27.50;49.90;;;;;;4984121;28;20180;-72
2022/05/10 11:42:02;;;;;;;6.82;2.75;;;27.60;49.50;;;;;;4985111;28;20074;-72
2022/05/10 11:45:01;;;;;;;9.52;2.40;;;27.70;49.40;;;;;;4965200;28;20076;-72
2022/05/10 11:47:38;;;;;;;6.82;1.88;;;27.80;49.30;;;;;;4984944;28;20554;-73
2022/05/10 11:51:38;;;;;;;7.38;1.88;;;27.90;49.30;;;;;;4981680;28;20034;-73
2022/05/10 11:53:37;;;;;;;4.15;1.35;;;28.00;49.00;;;;;;4985700;28;20151;-73
2022/05/10 11:56:04;;;;;;;5.07;1.58;;;28.10;48.90;;;;;;4983654;28;20052;-73
2022/05/10 11:58:34;;;;;;;8.00;2.13;;;28.20;48.90;;;;;;4987222;28;20429;-73
2022/05/10 12:01:03;;;;;;;7.07;2.42;;;28.20;48.50;;;;;;4995917;28;20048;-72
2022/05/10 12:03:44;;;;;;;6.85;1.98;;;28.30;48.50;;;;;;4992926;28;20029;-73
2022/05/10 12:06:22;;;;;;;5.68;1.60;;;28.40;48.20;;;;;;4983366;28;20511;-73
2022/05/10 12:09:11;;;;;;;5.28;1.83;;;28.50;48.00;;;;;;4984786;28;20512;-73
2022/05/10 12:11:39;;;;;;;3.97;1.90;;;28.50;48.10;;;;;;4984403;28;20022;-72
2022/05/10 12:22:46;;;;;;;13.32;2.55;;;28.80;47.40;;;;;;4981309;28;20379;-73
2022/05/10 12:25:50;;;;;;;4.90;1.63;;;28.90;47.00;;;;;;4980024;28;20476;-73
2022/05/10 12:28:39;;;;;;;5.28;1.67;;;29.00;47.00;;;;;;4986037;28;20029;-72
2022/05/10 12:31:30;;;;;;;8.05;2.10;;;29.00;46.80;;;;;;4988205;28;20547;-72
2022/05/10 12:34:08;;;;;;;6.70;1.95;;;29.20;46.70;;;;;;4987166;28;20273;-72
2022/05/10 12:36:39;;;;;;;4.90;1.90;;;29.20;46.40;;;;;;4974803;28;20081;-73
2022/05/10 12:39:26;;;;;;;5.57;1.42;;;29.30;46.40;;;;;;4989799;28;20089;-72
2022/05/10 12:42:07;;;;;;;5.43;1.80;;;29.40;46.10;;;;;;4994238;28;20082;-72
2022/05/10 12:44:55;;;;;;;6.93;1.73;;;29.50;46.00;;;;;;4980057;28;20031;-73
2022/05/10 12:47:33;;;;;;;4.82;1.70;;;29.60;45.70;;;;;;4987308;28;20054;-72
2022/05/10 12:50:21;;;;;;;6.72;2.47;;;29.70;45.80;;;;;;4989948;28;20036;-72
2022/05/10 12:52:48;;;;;;;4.95;1.75;;;29.80;45.50;;;;;;4988255;28;20025;-73
2022/05/10 12:55:22;;;;;;;5.30;1.48;;;30.00;45.50;;;;;;4971600;28;20123;-73
2022/05/10 12:57:54;;;;;;;6.97;1.50;;;30.00;45.10;;;;;;4988648;28;20026;-72
2022/05/10 13:00:23;;;;;;;3.37;1.37;;;30.20;45.10;;;;;;4983771;28;20042;-72
2022/05/10 13:02:56;;;;;;;6.13;1.55;;;30.30;45.00;;;;;;4989648;28;20062;-72
2022/05/10 13:05:40;;;;;;;6.28;1.67;;;30.40;44.90;;;;;;4985196;28;20095;-72
2022/05/10 13:08:38;;;;;;;5.38;2.00;;;30.60;44.60;;;;;;4994233;28;20110;-72
2022/05/10 13:11:05;;;;;;;4.82;1.52;;;30.80;44.40;;;;;;4982578;28;20025;-73
2022/05/10 13:13:33;;;;;;;7.07;2.10;;;30.90;44.50;;;;;;4985614;28;20458;-73
2022/05/10 13:16:01;;;;;;;5.95;1.95;;;31.00;44.20;;;;;;4981070;28;20035;-73
2022/05/10 13:18:28;;;;;;;5.53;1.50;;;31.20;44.00;;;;;;4990609;28;20446;-73
2022/05/10 13:20:57;;;;;;;4.80;1.95;;;31.30;43.70;;;;;;4992197;28;20033;-73
2022/05/10 13:23:29;;;;;;;5.80;1.92;;;31.40;43.50;;;;;;4989427;28;20393;-72
2022/05/10 13:26:02;;;;;;;6.43;1.95;;;31.60;43.30;;;;;;4984333;28;20026;-73
2022/05/10 13:28:28;;;;;;;6.13;2.03;;;31.70;43.20;;;;;;4989656;28;20042;-73
2022/05/10 13:30:58;;;;;;;4.32;1.58;;;31.90;43.00;;;;;;4987159;28;20106;-73
2022/05/10 13:33:31;;;;;;;3.42;1.20;;;32.00;42.80;;;;;;4988099;28;20069;-73
2022/05/10 13:36:05;;;;;;;4.80;1.45;;;32.20;42.70;;;;;;4995560;28;20030;-73